createdAt,value
2023-02-11T00:01:20.056Z,17.40
2023-02-11T00:03:47.654Z,19.97
2023-02-11T00:06:15.400Z,21.13
2023-02-11T00:08:42.890Z,17.90
2023-02-11T00:11:13.327Z,15.83
2023-02-11T00:13:40.730Z,16.97
2023-02-11T00:16:09.265Z,15.93
2023-02-11T00:18:38.078Z,17.77
2023-02-11T00:21:09.456Z,18.93
2023-02-11T00:23:37.056Z,20.73
2023-02-11T00:26:05.274Z,20.00
2023-02-11T00:28:32.709Z,15.33
2023-02-11T00:31:01.672Z,15.60
2023-02-11T00:33:29.196Z,18.90
2023-02-11T00:35:57.979Z,24.03
2023-02-11T00:38:25.421Z,17.87
2023-02-11T00:40:52.860Z,18.17
2023-02-11T00:43:20.336Z,18.13
2023-02-11T00:45:48.006Z,17.87
2023-02-11T00:48:15.600Z,21.33
2023-02-11T00:50:43.019Z,24.20
2023-02-11T00:53:12.076Z,19.40
2023-02-11T00:55:39.616Z,19.40
2023-02-11T00:58:07.049Z,20.13
2023-02-11T01:00:34.549Z,20.30
2023-02-11T01:03:02.000Z,17.20
2023-02-11T01:05:29.851Z,21.90
2023-02-11T01:07:57.338Z,22.23
2023-02-11T01:10:26.150Z,18.47
2023-02-11T01:12:53.785Z,21.27
2023-02-11T01:15:21.757Z,19.50
2023-02-11T01:17:49.215Z,19.13
2023-02-11T01:20:18.025Z,19.67
2023-02-11T01:22:45.469Z,20.70
2023-02-11T01:25:12.955Z,21.97
2023-02-11T01:27:41.728Z,22.20
2023-02-11T01:30:10.792Z,22.07
2023-02-11T01:32:38.310Z,22.93
2023-02-11T01:35:06.059Z,19.80
2023-02-11T01:37:33.850Z,21.73
2023-02-11T01:40:02.253Z,22.43
2023-02-11T01:42:29.983Z,20.10
2023-02-11T01:44:59.412Z,20.37
2023-02-11T01:47:26.898Z,21.97
2023-02-11T01:49:56.608Z,23.00
2023-02-11T01:52:26.352Z,23.60
2023-02-11T01:55:12.660Z,23.90
2023-02-11T01:57:41.253Z,20.60
2023-02-11T02:00:12.082Z,21.67
2023-02-11T02:02:44.170Z,22.07
2023-02-11T02:05:17.440Z,22.83
2023-02-11T02:07:46.992Z,21.70
2023-02-11T02:10:16.380Z,23.43
2023-02-11T02:12:43.851Z,24.67
2023-02-11T02:15:38.584Z,24.77
2023-02-11T02:18:17.026Z,26.00
2023-02-11T02:20:59.255Z,23.60
2023-02-11T02:23:32.908Z,27.03
2023-02-11T02:26:15.249Z,23.13
2023-02-11T02:28:53.801Z,22.10
2023-02-11T02:31:36.117Z,21.23
2023-02-11T02:34:07.882Z,24.77
2023-02-11T02:36:38.083Z,22.27
2023-02-11T02:39:07.521Z,23.20
2023-02-11T02:41:36.188Z,25.90
2023-02-11T02:44:03.734Z,23.50
2023-02-11T02:46:32.461Z,21.17
2023-02-11T02:49:00.567Z,24.43
2023-02-11T02:51:49.307Z,22.00
2023-02-11T02:54:34.270Z,28.40
2023-02-11T02:57:09.233Z,27.10
2023-02-11T02:59:43.018Z,24.87
2023-02-11T03:02:14.221Z,29.60
2023-02-11T03:04:47.903Z,26.33
2023-02-11T03:07:21.348Z,26.33
2023-02-11T03:09:51.067Z,27.13
2023-02-11T03:12:18.625Z,30.23
2023-02-11T03:14:46.485Z,23.97
2023-02-11T03:17:15.187Z,28.70
2023-02-11T03:19:44.354Z,27.70
2023-02-11T03:22:13.448Z,30.67
2023-02-11T03:24:42.968Z,28.33
2023-02-11T03:27:11.881Z,28.20
2023-02-11T03:29:41.750Z,26.93
2023-02-11T03:32:16.011Z,30.33
2023-02-11T03:34:45.235Z,32.00
2023-02-11T03:37:15.104Z,29.60
2023-02-11T03:39:45.473Z,33.63
2023-02-11T03:42:14.493Z,29.53
2023-02-11T03:44:43.747Z,27.90
2023-02-11T03:47:11.906Z,29.90
2023-02-11T03:49:40.786Z,30.27
2023-02-11T03:52:11.281Z,35.23
2023-02-11T03:54:39.588Z,28.53
2023-02-11T03:57:08.594Z,31.47
2023-02-11T03:59:50.495Z,32.77
2023-02-11T04:02:17.983Z,29.27
2023-02-11T04:04:45.540Z,33.77
2023-02-11T04:07:13.289Z,30.90
2023-02-11T04:09:40.751Z,33.53
2023-02-11T04:12:09.786Z,31.77
2023-02-11T04:14:37.412Z,26.80
2023-02-11T04:17:05.064Z,30.00
2023-02-11T04:19:32.726Z,31.07
2023-02-11T04:22:00.227Z,40.67
2023-02-11T04:24:28.142Z,37.53
2023-02-11T04:26:55.777Z,32.97
2023-02-11T04:29:24.509Z,34.70
2023-02-11T04:31:51.979Z,33.00
2023-02-11T04:34:19.398Z,35.17
2023-02-11T04:36:46.863Z,31.13
2023-02-11T04:39:14.404Z,32.73
2023-02-11T04:41:41.861Z,35.30
2023-02-11T04:44:09.483Z,32.20
2023-02-11T04:46:38.323Z,34.17
2023-02-11T04:49:05.806Z,36.53
2023-02-11T04:51:33.273Z,37.33
2023-02-11T04:54:00.719Z,37.13
2023-02-11T04:56:28.151Z,31.33
2023-02-11T04:58:55.608Z,41.50
2023-02-11T05:01:23.271Z,30.33
2023-02-11T05:03:52.169Z,34.07
2023-02-11T05:06:19.793Z,36.30
2023-02-11T05:08:47.192Z,34.77
2023-02-11T05:11:16.466Z,34.97
2023-02-11T05:13:44.083Z,32.10
2023-02-11T05:16:11.495Z,36.17
2023-02-11T05:18:38.962Z,31.67
2023-02-11T05:21:08.766Z,30.80
2023-02-11T05:23:36.484Z,33.47
2023-02-11T05:26:04.537Z,37.93
2023-02-11T05:28:32.155Z,33.30
2023-02-11T05:30:59.796Z,32.00
2023-02-11T05:33:27.247Z,30.67
2023-02-11T05:35:58.852Z,32.70
2023-02-11T05:38:27.659Z,28.90
2023-02-11T05:40:55.338Z,31.70
2023-02-11T05:43:22.856Z,30.73
2023-02-11T05:45:50.770Z,31.17
2023-02-11T05:48:18.518Z,34.83
2023-02-11T05:50:46.424Z,30.70
2023-02-11T05:53:15.353Z,31.13
2023-02-11T05:55:44.186Z,35.40
2023-02-11T05:58:11.669Z,27.93
2023-02-11T06:00:39.165Z,30.10
2023-02-11T06:03:06.587Z,28.87
2023-02-11T06:05:34.218Z,31.20
2023-02-11T06:08:01.688Z,35.43
2023-02-11T06:10:29.146Z,35.50
2023-02-11T06:12:57.877Z,34.00
2023-02-11T06:15:25.362Z,35.23
2023-02-11T06:17:53.074Z,34.80
2023-02-11T06:20:20.591Z,27.07
2023-02-11T06:22:48.010Z,40.97
2023-02-11T06:25:15.743Z,35.00
2023-02-11T06:27:43.169Z,29.63
2023-02-11T06:30:12.887Z,28.70
2023-02-11T06:32:44.656Z,34.03
2023-02-11T06:35:12.956Z,35.07
2023-02-11T06:37:40.373Z,40.63
2023-02-11T06:40:08.251Z,41.47
2023-02-11T06:42:38.388Z,37.63
2023-02-11T06:45:06.267Z,40.93
2023-02-11T06:47:35.014Z,35.30
2023-02-11T06:50:02.586Z,42.23
2023-02-11T06:52:30.009Z,31.43
2023-02-11T06:54:57.440Z,38.80
2023-02-11T06:57:24.883Z,35.17
2023-02-11T06:59:52.482Z,37.77
2023-02-11T07:02:21.138Z,34.93
2023-02-11T07:04:50.174Z,34.07
2023-02-11T07:07:17.609Z,31.40
2023-02-11T07:09:45.136Z,35.80
2023-02-11T07:12:12.593Z,32.47
2023-02-11T07:14:40.343Z,33.17
2023-02-11T07:17:07.709Z,31.77
2023-02-11T07:19:35.165Z,30.83
2023-02-11T07:22:04.072Z,26.23
2023-02-11T07:24:31.614Z,31.50
2023-02-11T07:26:59.197Z,30.83
2023-02-11T07:29:26.548Z,32.50
2023-02-11T07:31:54.031Z,29.07
2023-02-11T07:34:21.571Z,35.60
2023-02-11T07:36:49.977Z,30.53
2023-02-11T07:39:20.034Z,30.80
2023-02-11T07:41:49.321Z,29.17
2023-02-11T07:44:16.901Z,34.10
2023-02-11T07:46:45.452Z,34.43
2023-02-11T07:49:13.143Z,37.07
2023-02-11T07:51:40.584Z,30.10
2023-02-11T07:54:08.289Z,32.50
2023-02-11T07:56:37.090Z,36.47
2023-02-11T07:59:04.500Z,38.10
2023-02-11T08:01:32.268Z,31.10
2023-02-11T08:04:01.127Z,41.60
2023-02-11T08:06:29.292Z,36.33
2023-02-11T08:08:56.724Z,34.40
2023-02-11T08:11:25.061Z,33.43
2023-02-11T08:13:53.947Z,32.40
2023-02-11T08:16:22.405Z,36.70
2023-02-11T08:18:50.487Z,33.40
2023-02-11T08:21:18.229Z,35.50
2023-02-11T08:23:46.707Z,38.87
2023-02-11T08:26:15.233Z,34.60
2023-02-11T08:28:44.267Z,36.13
2023-02-11T08:31:14.163Z,37.03
2023-02-11T08:33:41.793Z,37.00
2023-02-11T08:36:09.943Z,37.47
2023-02-11T08:38:37.402Z,40.67
2023-02-11T08:41:05.051Z,36.33
2023-02-11T08:43:32.853Z,33.30
2023-02-11T08:46:02.140Z,36.10
2023-02-11T08:48:31.389Z,32.37
2023-02-11T08:50:58.900Z,35.40
2023-02-11T08:53:27.700Z,35.93
2023-02-11T08:55:56.044Z,35.07
2023-02-11T08:58:23.712Z,35.17
2023-02-11T09:00:51.878Z,34.00
2023-02-11T09:03:19.565Z,31.43
2023-02-11T09:05:49.844Z,33.40
2023-02-11T09:08:18.164Z,34.83
2023-02-11T09:10:45.680Z,33.40
2023-02-11T09:13:13.340Z,36.10
2023-02-11T09:15:40.809Z,37.70
2023-02-11T09:18:08.318Z,35.10
2023-02-11T09:20:35.714Z,37.30
2023-02-11T09:23:04.589Z,38.70
2023-02-11T09:25:32.077Z,33.23
2023-02-11T09:27:59.534Z,32.27
2023-02-11T09:30:27.038Z,37.10
2023-02-11T09:32:54.544Z,33.90
2023-02-11T09:35:22.005Z,34.90
2023-02-11T09:37:49.384Z,39.43
2023-02-11T09:40:19.172Z,42.10
2023-02-11T09:42:48.918Z,36.63
2023-02-11T09:45:19.886Z,37.60
2023-02-11T09:47:49.097Z,36.67
2023-02-11T09:50:19.382Z,34.80
2023-02-11T09:52:49.145Z,31.30
2023-02-11T09:55:21.412Z,33.80
2023-02-11T09:57:49.006Z,34.40
2023-02-11T10:00:21.398Z,30.30
2023-02-11T10:03:03.979Z,35.20
2023-02-11T10:05:36.180Z,30.90
2023-02-11T10:08:09.796Z,34.83
2023-02-11T10:10:45.447Z,36.60
2023-02-11T10:13:24.001Z,34.10
2023-02-11T10:15:57.301Z,36.03
2023-02-11T10:18:37.940Z,32.87
2023-02-11T10:21:10.789Z,31.30
2023-02-11T10:23:40.985Z,30.90
2023-02-11T10:26:13.254Z,34.63
2023-02-11T10:28:41.322Z,33.37
2023-02-11T10:31:11.472Z,34.30
2023-02-11T10:33:43.468Z,35.83
2023-02-11T10:36:11.953Z,36.47
2023-02-11T10:38:39.502Z,34.20
2023-02-11T10:41:07.601Z,37.27
2023-02-11T10:43:36.588Z,34.77
2023-02-11T10:46:04.676Z,38.67
2023-02-11T10:48:40.359Z,36.10
2023-02-11T10:51:09.009Z,37.83
2023-02-11T10:53:36.543Z,32.27
2023-02-11T10:56:04.537Z,38.57
2023-02-11T10:58:32.780Z,37.80
2023-02-11T11:01:02.765Z,41.10
2023-02-11T11:03:34.652Z,40.23
2023-02-11T11:06:03.117Z,39.83
2023-02-11T11:08:41.384Z,39.00
2023-02-11T11:11:09.632Z,40.10
2023-02-11T11:13:37.859Z,39.53
2023-02-11T11:16:16.084Z,40.47
2023-02-11T11:18:44.561Z,41.67
2023-02-11T11:21:14.773Z,42.07
2023-02-11T11:23:48.215Z,39.83
2023-02-11T11:26:16.640Z,42.80
2023-02-11T11:28:51.343Z,44.00
2023-02-11T11:31:21.501Z,43.00
2023-02-11T11:33:49.617Z,38.70
2023-02-11T11:36:18.314Z,46.03
2023-02-11T11:38:46.764Z,37.47
2023-02-11T11:41:15.496Z,40.10
2023-02-11T11:43:54.504Z,42.80
2023-02-11T11:46:26.111Z,39.73
2023-02-11T11:48:57.169Z,36.17
2023-02-11T11:51:25.274Z,34.93
2023-02-11T11:53:57.193Z,35.90
2023-02-11T11:56:26.791Z,40.40
2023-02-11T11:58:55.177Z,38.40
2023-02-11T12:01:30.727Z,31.37
2023-02-11T12:04:04.386Z,32.57
2023-02-11T12:06:39.367Z,34.97
2023-02-11T12:09:10.778Z,36.03
2023-02-11T12:11:45.940Z,34.80
2023-02-11T12:14:16.131Z,33.60
2023-02-11T12:16:53.008Z,35.33
2023-02-11T12:19:34.762Z,33.37
2023-02-11T12:22:07.452Z,30.63
2023-02-11T12:24:41.917Z,32.30
2023-02-11T12:27:12.413Z,32.40
2023-02-11T12:29:43.609Z,34.87
2023-02-11T12:32:26.573Z,32.33
2023-02-11T12:35:00.554Z,34.00
2023-02-11T12:37:32.868Z,31.80
2023-02-11T12:40:04.856Z,36.70
2023-02-11T12:42:55.484Z,33.10
2023-02-11T12:45:27.493Z,34.47
2023-02-11T12:48:03.153Z,33.30
2023-02-11T12:50:34.670Z,34.43
2023-02-11T12:53:09.997Z,32.60
2023-02-11T12:55:39.771Z,37.47
2023-02-11T12:58:14.254Z,35.57
2023-02-11T13:00:43.605Z,33.47
2023-02-11T13:03:16.797Z,35.70
2023-02-11T13:05:47.034Z,41.53
2023-02-11T13:08:17.007Z,39.60
2023-02-11T13:10:46.952Z,41.00
2023-02-11T13:13:19.485Z,39.40
2023-02-11T13:15:49.441Z,39.70
2023-02-11T13:18:31.536Z,36.47
2023-02-11T13:21:02.330Z,37.43
2023-02-11T13:23:35.822Z,38.70
2023-02-11T13:26:06.643Z,40.10
2023-02-11T13:28:41.337Z,42.87
2023-02-11T13:31:09.690Z,44.00
2023-02-11T13:33:42.992Z,40.30
2023-02-11T13:36:15.464Z,38.00
2023-02-11T13:38:52.317Z,39.30
2023-02-11T13:41:22.255Z,37.90
2023-02-11T13:43:58.354Z,37.50
2023-02-11T13:46:26.595Z,38.00
2023-02-11T13:48:55.635Z,42.90
2023-02-11T13:51:35.501Z,41.90
2023-02-11T13:54:03.477Z,42.93
2023-02-11T13:56:31.643Z,46.00
2023-02-11T13:59:02.016Z,38.33
2023-02-11T14:02:15.936Z,44.13
2023-02-11T14:05:15.706Z,44.17
2023-02-11T14:08:22.585Z,43.00
2023-02-11T14:10:51.394Z,39.50
2023-02-11T14:13:23.147Z,39.20
2023-02-11T14:16:04.010Z,42.37
2023-02-11T14:18:37.598Z,52.00
2023-02-11T14:21:11.733Z,46.33
2023-02-11T14:23:40.713Z,44.50
2023-02-11T14:26:19.991Z,42.50
2023-02-11T14:28:49.232Z,45.87
2023-02-11T14:31:19.478Z,39.60
2023-02-11T14:34:01.680Z,41.73
2023-02-11T14:36:46.728Z,46.33
2023-02-11T14:39:20.250Z,43.73
2023-02-11T14:41:48.581Z,40.80
2023-02-11T14:44:17.396Z,42.67
2023-02-11T14:46:46.140Z,44.93
2023-02-11T14:49:19.322Z,42.53
2023-02-11T14:51:46.980Z,45.17
2023-02-11T14:54:17.122Z,43.03
2023-02-11T14:56:46.890Z,43.27
2023-02-11T14:59:17.766Z,42.97
2023-02-11T15:01:47.323Z,45.17
2023-02-11T15:04:24.319Z,44.37
2023-02-11T15:06:51.965Z,40.07
2023-02-11T15:09:21.082Z,40.13
2023-02-11T15:11:50.415Z,44.47
2023-02-11T15:14:22.053Z,47.13
2023-02-11T15:16:50.688Z,45.00
2023-02-11T15:19:22.150Z,41.27
2023-02-11T15:21:50.627Z,42.30
2023-02-11T15:24:25.877Z,48.00
2023-02-11T15:26:58.171Z,41.27
2023-02-11T15:29:26.036Z,45.40
2023-02-11T15:32:04.157Z,44.53
2023-02-11T15:34:31.872Z,43.30
2023-02-11T15:36:59.416Z,39.50
2023-02-11T15:39:31.593Z,46.13
2023-02-11T15:42:14.115Z,42.37
2023-02-11T15:44:42.919Z,44.40
2023-02-11T15:47:10.748Z,41.90
2023-02-11T15:49:38.506Z,47.47
2023-02-11T15:52:08.202Z,50.07
2023-02-11T15:54:35.673Z,43.00
2023-02-11T15:57:04.224Z,46.60
2023-02-11T15:59:35.295Z,39.80
2023-02-11T16:02:09.786Z,45.53
2023-02-11T16:04:37.362Z,44.03
2023-02-11T16:07:05.140Z,44.27
2023-02-11T16:09:33.700Z,43.03
2023-02-11T16:12:03.440Z,49.07
2023-02-11T16:14:32.789Z,43.47
2023-02-11T16:17:02.272Z,44.80
2023-02-11T16:19:32.057Z,46.70
2023-02-11T16:22:00.472Z,49.53
2023-02-11T16:24:29.308Z,46.77
2023-02-11T16:26:57.890Z,50.00
2023-02-11T16:29:27.207Z,47.30
2023-02-11T16:31:55.843Z,48.90
2023-02-11T16:34:24.053Z,44.00
2023-02-11T16:36:53.539Z,47.53
2023-02-11T16:39:22.710Z,45.07
2023-02-11T16:41:51.750Z,52.67
2023-02-11T16:44:19.368Z,46.33
2023-02-11T16:46:46.947Z,46.90
2023-02-11T16:49:18.502Z,46.23
2023-02-11T16:51:47.089Z,46.83
2023-02-11T16:54:17.078Z,40.00
2023-02-11T16:56:44.656Z,43.53
2023-02-11T16:59:12.414Z,46.80
2023-02-11T17:01:41.273Z,47.80
2023-02-11T17:04:11.832Z,56.87
2023-02-11T17:06:39.345Z,53.87
2023-02-11T17:09:07.886Z,48.33
2023-02-11T17:11:36.680Z,49.97
2023-02-11T17:14:04.085Z,46.40
2023-02-11T17:16:32.553Z,48.30
2023-02-11T17:19:00.082Z,50.07
2023-02-11T17:21:29.891Z,51.70
2023-02-11T17:23:57.556Z,46.03
2023-02-11T17:26:24.961Z,50.10
2023-02-11T17:28:54.198Z,42.80
2023-02-11T17:31:21.674Z,47.33
2023-02-11T17:33:49.377Z,47.23
2023-02-11T17:36:16.743Z,45.43
2023-02-11T17:38:44.176Z,50.13
2023-02-11T17:41:11.779Z,42.07
2023-02-11T17:43:39.188Z,45.20
2023-02-11T17:46:09.121Z,47.97
2023-02-11T17:48:37.692Z,45.40
2023-02-11T17:51:05.249Z,46.70
2023-02-11T17:53:32.703Z,48.83
2023-02-11T17:56:06.240Z,47.40
2023-02-11T17:58:33.985Z,49.27
2023-02-11T18:01:01.461Z,44.97
2023-02-11T18:03:30.354Z,59.43
2023-02-11T18:06:00.380Z,60.23
2023-02-11T18:08:27.803Z,55.20
2023-02-11T18:10:55.323Z,59.47
2023-02-11T18:13:23.012Z,50.13
2023-02-11T18:15:50.657Z,53.23
2023-02-11T18:18:18.447Z,49.17
2023-02-11T18:20:56.109Z,47.00
2023-02-11T18:23:23.537Z,42.83
2023-02-11T18:25:51.254Z,45.70
2023-02-11T18:28:18.952Z,46.97
2023-02-11T18:30:46.533Z,46.60
2023-02-11T18:33:14.428Z,48.07
2023-02-11T18:35:42.389Z,49.27
2023-02-11T18:38:11.168Z,50.83
2023-02-11T18:40:39.917Z,47.50
2023-02-11T18:43:07.683Z,53.03
2023-02-11T18:45:35.234Z,52.97
2023-02-11T18:48:05.232Z,54.93
2023-02-11T18:50:32.665Z,49.10
2023-02-11T18:53:00.109Z,47.30
2023-02-11T18:55:28.870Z,51.17
2023-02-11T18:57:56.315Z,48.83
2023-02-11T19:00:23.983Z,49.83
2023-02-11T19:02:52.954Z,50.43
2023-02-11T19:05:21.515Z,53.97
2023-02-11T19:07:49.997Z,45.00
2023-02-11T19:10:17.666Z,51.40
2023-02-11T19:12:46.438Z,45.20
2023-02-11T19:15:14.159Z,47.07
2023-02-11T19:17:41.664Z,43.00
2023-02-11T19:20:09.733Z,42.93
2023-02-11T19:22:37.264Z,41.90
2023-02-11T19:25:04.935Z,37.40
2023-02-11T19:27:32.403Z,37.63
2023-02-11T19:30:01.422Z,39.80
2023-02-11T19:32:28.825Z,39.77
2023-02-11T19:34:56.251Z,39.33
2023-02-11T19:37:23.623Z,43.83
2023-02-11T19:39:51.040Z,44.70
2023-02-11T19:42:18.474Z,42.50
2023-02-11T19:44:45.880Z,38.67
2023-02-11T19:47:14.759Z,39.33
2023-02-11T19:49:42.175Z,40.80
2023-02-11T19:52:09.564Z,38.50
2023-02-11T19:54:38.589Z,42.30
2023-02-11T19:57:06.035Z,45.77
2023-02-11T19:59:33.497Z,40.47
2023-02-11T20:02:01.647Z,39.03
2023-02-11T20:04:32.142Z,38.50
2023-02-11T20:06:59.687Z,42.60
2023-02-11T20:09:28.998Z,40.80
2023-02-11T20:11:56.829Z,38.10
2023-02-11T20:14:26.198Z,36.03
2023-02-11T20:16:55.250Z,39.77
2023-02-11T20:19:23.022Z,35.90
2023-02-11T20:21:52.966Z,42.80
2023-02-11T20:24:21.006Z,36.47
2023-02-11T20:26:49.393Z,42.20
2023-02-11T20:29:17.257Z,38.97
2023-02-11T20:31:45.166Z,39.17
2023-02-11T20:34:12.855Z,41.60
2023-02-11T20:36:40.479Z,41.23
2023-02-11T20:39:09.740Z,39.70
2023-02-11T20:41:39.766Z,37.90
2023-02-11T20:44:08.284Z,39.90
2023-02-11T20:46:37.700Z,44.43
2023-02-11T20:49:05.796Z,41.80
2023-02-11T20:51:33.862Z,40.40
2023-02-11T20:54:01.757Z,42.50
2023-02-11T20:56:34.507Z,42.57
2023-02-11T20:59:03.811Z,46.80
2023-02-11T21:01:32.337Z,40.63
2023-02-11T21:04:00.817Z,37.40
2023-02-11T21:06:28.809Z,40.13
2023-02-11T21:08:57.601Z,38.40
2023-02-11T21:11:25.072Z,43.13
2023-02-11T21:13:53.891Z,43.27
2023-02-11T21:16:21.564Z,43.70
2023-02-11T21:18:49.973Z,40.20
2023-02-11T21:21:17.392Z,43.20
2023-02-11T21:23:44.847Z,38.47
2023-02-11T21:26:12.308Z,41.50
2023-02-11T21:28:41.069Z,36.93
2023-02-11T21:31:10.996Z,34.50
2023-02-11T21:33:39.255Z,38.43
2023-02-11T21:36:08.034Z,38.43
2023-02-11T21:38:35.980Z,36.87
2023-02-11T21:41:04.289Z,38.87
2023-02-11T21:43:31.947Z,32.23
2023-02-11T21:45:59.528Z,36.90
2023-02-11T21:48:28.333Z,39.87
2023-02-11T21:50:55.947Z,29.93
2023-02-11T21:53:23.324Z,39.40
2023-02-11T21:55:51.221Z,38.30
2023-02-11T21:58:18.677Z,39.90
2023-02-11T22:00:46.094Z,37.13
2023-02-11T22:03:13.949Z,38.27
2023-02-11T22:05:42.905Z,41.50
2023-02-11T22:08:10.349Z,39.83
2023-02-11T22:10:38.904Z,37.83
2023-02-11T22:13:06.361Z,37.87
2023-02-11T22:15:33.795Z,37.37
2023-02-11T22:18:01.242Z,36.93
2023-02-11T22:20:28.689Z,35.20
2023-02-11T22:22:57.455Z,38.37
2023-02-11T22:25:24.939Z,37.37
2023-02-11T22:27:52.339Z,36.90
2023-02-11T22:30:20.045Z,41.67
2023-02-11T22:32:47.529Z,39.30
2023-02-11T22:35:15.048Z,37.30
2023-02-11T22:37:42.492Z,38.00
2023-02-11T22:40:11.967Z,40.07
2023-02-11T22:42:39.396Z,37.83
2023-02-11T22:45:07.332Z,38.70
2023-02-11T22:47:36.173Z,37.23
2023-02-11T22:50:03.592Z,33.67
2023-02-11T22:52:30.993Z,35.60
2023-02-11T22:55:00.345Z,39.93
2023-02-11T22:57:29.427Z,32.73
2023-02-11T22:59:56.875Z,40.90
2023-02-11T23:02:24.330Z,51.93
2023-02-11T23:04:51.894Z,39.07
2023-02-11T23:07:19.333Z,38.20
2023-02-11T23:09:46.727Z,39.77
2023-02-11T23:12:14.111Z,36.83
2023-02-11T23:14:43.462Z,39.97
2023-02-11T23:17:10.870Z,37.40
2023-02-11T23:19:38.239Z,44.73
2023-02-11T23:22:05.636Z,37.90
2023-02-11T23:24:33.033Z,40.90
2023-02-11T23:27:00.444Z,40.80
2023-02-11T23:29:27.984Z,40.70
2023-02-11T23:31:58.780Z,38.40
2023-02-11T23:34:26.500Z,37.87
2023-02-11T23:36:54.061Z,42.80
2023-02-11T23:39:21.577Z,41.20
2023-02-11T23:41:48.975Z,44.97
2023-02-11T23:44:16.425Z,38.47
2023-02-11T23:46:43.874Z,39.53
2023-02-11T23:49:13.001Z,43.00
2023-02-11T23:51:40.439Z,42.83
2023-02-11T23:54:07.883Z,39.23
2023-02-11T23:56:36.808Z,34.97
2023-02-11T23:59:04.303Z,36.33
